createdAt,value
2022-12-01T00:01:39.517Z,10.80
2022-12-01T00:04:08.166Z,10.70
2022-12-01T00:06:37.078Z,10.60
2022-12-01T00:09:24.177Z,9.80
2022-12-01T00:11:52.959Z,10.60
2022-12-01T00:14:21.443Z,9.70
2022-12-01T00:16:50.174Z,9.80
2022-12-01T00:19:19.018Z,9.90
2022-12-01T00:21:47.805Z,10.30
2022-12-01T00:24:16.521Z,11.10
2022-12-01T00:26:45.051Z,10.60
2022-12-01T00:29:13.759Z,10.60
2022-12-01T00:31:42.823Z,10.40
2022-12-01T00:34:31.850Z,9.80
2022-12-01T00:37:00.966Z,10.80
2022-12-01T00:39:29.603Z,10.60
2022-12-01T00:41:58.282Z,10.90
2022-12-01T00:44:26.865Z,11.10
2022-12-01T00:46:55.652Z,11.30
2022-12-01T00:49:24.337Z,11.80
2022-12-01T00:51:52.921Z,12.10
2022-12-01T00:54:21.503Z,11.00
2022-12-01T00:56:50.293Z,11.80
2022-12-01T00:59:18.976Z,10.90
2022-12-01T01:01:47.906Z,10.30
2022-12-01T01:04:16.764Z,11.30
2022-12-01T01:06:45.684Z,10.60
2022-12-01T01:09:15.998Z,11.60
2022-12-01T01:11:44.563Z,11.30
2022-12-01T01:14:13.173Z,10.50
2022-12-01T01:16:41.747Z,11.90
2022-12-01T01:19:10.542Z,11.30
2022-12-01T01:21:39.654Z,11.40
2022-12-01T01:24:08.700Z,11.30
2022-12-01T01:26:38.208Z,11.30
2022-12-01T01:29:08.256Z,10.90
2022-12-01T01:31:36.914Z,12.70
2022-12-01T01:34:05.530Z,10.90
2022-12-01T01:36:34.175Z,11.50
2022-12-01T01:39:02.969Z,11.80
2022-12-01T01:41:31.792Z,11.40
2022-12-01T01:44:03.428Z,12.40
2022-12-01T01:46:35.238Z,12.40
2022-12-01T01:49:08.767Z,11.80
2022-12-01T01:51:50.352Z,11.80
2022-12-01T01:54:28.868Z,11.90
2022-12-01T01:56:58.697Z,10.90
2022-12-01T02:02:11.398Z,11.60
2022-12-01T02:04:51.571Z,10.80
2022-12-01T02:07:21.070Z,11.90
2022-12-01T02:09:50.016Z,10.80
2022-12-01T02:12:49.983Z,10.20
2022-12-01T02:15:36.483Z,9.90
2022-12-01T02:18:28.157Z,10.70
2022-12-01T02:21:14.949Z,10.50
2022-12-01T02:24:22.211Z,10.60
2022-12-01T02:27:09.257Z,11.10
2022-12-01T02:30:02.014Z,10.50
2022-12-01T02:32:57.009Z,10.10
2022-12-01T02:36:03.037Z,10.90
2022-12-01T02:38:42.483Z,10.50
2022-12-01T02:41:20.893Z,10.70
2022-12-01T02:44:06.297Z,10.40
2022-12-01T02:46:42.059Z,10.40
2022-12-01T02:49:17.976Z,10.70
2022-12-01T02:51:49.027Z,11.50
2022-12-01T02:54:19.137Z,11.30
2022-12-01T02:56:52.425Z,11.30
2022-12-01T02:59:21.214Z,10.60
2022-12-01T03:02:22.207Z,10.70
2022-12-01T03:05:09.949Z,11.30
2022-12-01T03:08:20.559Z,10.80
2022-12-01T03:10:58.774Z,12.00
2022-12-01T03:13:41.995Z,11.60
2022-12-01T03:16:32.403Z,12.40
2022-12-01T03:19:10.392Z,12.10
2022-12-01T03:21:46.862Z,10.70
2022-12-01T03:24:19.742Z,11.60
2022-12-01T03:26:57.677Z,10.30
2022-12-01T03:29:43.569Z,11.30
2022-12-01T03:32:22.287Z,12.10
2022-12-01T03:35:01.649Z,11.10
2022-12-01T03:37:39.593Z,11.60
2022-12-01T03:40:20.158Z,13.60
2022-12-01T03:42:55.740Z,12.40
2022-12-01T03:45:35.978Z,13.60
2022-12-01T03:48:06.210Z,12.80
2022-12-01T03:50:49.959Z,12.40
2022-12-01T03:53:24.341Z,11.70
2022-12-01T03:55:58.662Z,12.80
2022-12-01T03:58:45.579Z,11.10
2022-12-01T04:01:14.701Z,11.60
2022-12-01T04:03:46.025Z,11.60
2022-12-01T04:06:15.665Z,12.80
2022-12-01T04:08:44.203Z,11.90
2022-12-01T04:11:56.957Z,11.30
2022-12-01T04:14:25.917Z,11.80
2022-12-01T04:16:54.609Z,10.90
2022-12-01T04:19:23.285Z,11.40
2022-12-01T04:21:51.971Z,11.40
2022-12-01T04:24:20.554Z,10.90
2022-12-01T04:26:49.140Z,12.20
2022-12-01T04:29:17.619Z,12.20
2022-12-01T04:31:46.260Z,12.00
2022-12-01T04:34:14.890Z,11.50
2022-12-01T04:36:43.401Z,11.30
2022-12-01T04:39:11.955Z,12.40
2022-12-01T04:41:40.841Z,10.90
2022-12-01T04:44:12.911Z,10.30
2022-12-01T04:46:41.803Z,12.00
2022-12-01T04:49:10.790Z,12.50
2022-12-01T04:51:39.372Z,12.10
2022-12-01T04:54:07.954Z,13.00
2022-12-01T04:56:36.694Z,12.90
2022-12-01T04:59:05.432Z,11.00
2022-12-01T05:01:34.262Z,12.20
2022-12-01T05:04:03.214Z,12.30
2022-12-01T05:06:32.099Z,12.00
2022-12-01T05:09:02.023Z,12.60
2022-12-01T05:11:32.372Z,13.00
2022-12-01T05:14:01.100Z,12.50
2022-12-01T05:16:32.996Z,12.60
2022-12-01T05:19:23.999Z,11.80
2022-12-01T05:21:52.992Z,13.50
2022-12-01T05:24:22.261Z,12.30
2022-12-01T05:26:50.664Z,12.20
2022-12-01T05:29:19.490Z,13.00
2022-12-01T05:31:48.281Z,12.60
2022-12-01T05:34:17.134Z,12.10
2022-12-01T05:36:45.569Z,12.30
2022-12-01T05:39:14.195Z,12.90
2022-12-01T05:41:42.984Z,12.20
2022-12-01T05:44:11.669Z,12.00
2022-12-01T05:46:40.255Z,13.50
2022-12-01T05:49:09.017Z,12.20
2022-12-01T05:51:37.622Z,12.60
2022-12-01T05:54:06.771Z,10.50
2022-12-01T05:56:35.512Z,12.00
2022-12-01T05:59:03.991Z,12.10
2022-12-01T06:01:32.670Z,12.20
2022-12-01T06:04:01.360Z,13.50
2022-12-01T06:06:30.186Z,12.50
2022-12-01T06:08:58.835Z,12.30
2022-12-01T06:11:27.618Z,12.70
2022-12-01T06:13:56.233Z,12.60
2022-12-01T06:16:24.929Z,12.00
2022-12-01T06:18:53.577Z,12.30
2022-12-01T06:21:22.109Z,11.80
2022-12-01T06:23:50.842Z,11.80
2022-12-01T06:26:19.642Z,10.90
2022-12-01T06:28:48.212Z,11.00
2022-12-01T06:31:16.745Z,11.10
2022-12-01T06:33:45.490Z,12.60
2022-12-01T06:36:14.810Z,11.80
2022-12-01T06:38:43.364Z,13.70
2022-12-01T06:41:12.051Z,10.00
2022-12-01T06:43:40.747Z,12.80
2022-12-01T06:46:09.364Z,12.10
2022-12-01T06:48:38.114Z,11.80
2022-12-01T06:51:07.003Z,12.90
2022-12-01T06:53:35.585Z,13.00
2022-12-01T06:56:05.704Z,13.30
2022-12-01T06:58:34.999Z,11.60
2022-12-01T07:01:11.943Z,12.50
2022-12-01T07:03:40.803Z,11.80
2022-12-01T07:06:10.070Z,12.80
2022-12-01T07:08:38.625Z,12.40
2022-12-01T07:11:10.549Z,12.00
2022-12-01T07:13:39.518Z,11.30
2022-12-01T07:16:09.715Z,11.30
2022-12-01T07:18:39.157Z,10.40
2022-12-01T07:21:12.844Z,10.80
2022-12-01T07:23:42.525Z,11.20
2022-12-01T07:28:46.161Z,10.60
2022-12-01T07:31:19.020Z,10.70
2022-12-01T07:33:47.728Z,12.70
2022-12-01T07:36:16.218Z,11.30
2022-12-01T07:38:44.891Z,12.80
2022-12-01T07:41:16.763Z,12.10
2022-12-01T07:43:46.746Z,10.50
2022-12-01T07:46:26.835Z,11.70
2022-12-01T07:48:57.071Z,12.20
2022-12-01T07:51:26.502Z,10.90
2022-12-01T07:53:55.476Z,11.40
2022-12-01T07:56:24.135Z,12.30
2022-12-01T07:58:52.640Z,10.40
2022-12-01T08:01:23.697Z,11.40
2022-12-01T08:03:55.570Z,13.00
2022-12-01T08:06:25.433Z,12.00
2022-12-01T08:08:54.129Z,11.60
2022-12-01T08:11:27.314Z,12.10
2022-12-01T08:13:56.179Z,11.50
2022-12-01T08:16:25.949Z,11.40
2022-12-01T08:18:55.195Z,11.50
2022-12-01T08:21:24.353Z,11.50
2022-12-01T08:23:57.891Z,12.30
2022-12-01T08:26:27.591Z,12.40
2022-12-01T08:31:29.241Z,10.90
2022-12-01T08:33:58.585Z,11.80
2022-12-01T08:36:27.257Z,11.80
2022-12-01T08:38:56.613Z,10.20
2022-12-01T08:41:25.469Z,10.70
2022-12-01T08:43:58.796Z,11.00
2022-12-01T08:46:32.349Z,11.10
2022-12-01T08:49:02.065Z,10.40
2022-12-01T08:54:00.892Z,9.90
2022-12-01T08:59:09.700Z,11.90
2022-12-01T09:01:52.302Z,11.40
2022-12-01T09:04:27.138Z,12.40
2022-12-01T09:06:58.314Z,11.20
2022-12-01T09:09:28.998Z,10.70
2022-12-01T09:11:58.007Z,10.30
2022-12-01T09:14:26.587Z,12.30
2022-12-01T09:16:55.241Z,12.70
2022-12-01T09:19:25.324Z,10.90
2022-12-01T09:21:54.095Z,12.20
2022-12-01T09:24:23.085Z,12.60
2022-12-01T09:27:00.153Z,11.30
2022-12-01T09:29:28.649Z,12.60
2022-12-01T09:31:58.975Z,11.40
2022-12-01T09:34:29.215Z,11.30
2022-12-01T09:36:58.799Z,11.10
2022-12-01T09:39:27.325Z,11.60
2022-12-01T09:42:09.220Z,11.30
2022-12-01T09:44:57.386Z,12.20
2022-12-01T09:47:37.391Z,12.50
2022-12-01T09:50:25.477Z,12.50
2022-12-01T09:53:09.285Z,12.10
2022-12-01T09:55:39.977Z,12.20
2022-12-01T09:58:19.611Z,12.40
2022-12-01T10:00:50.301Z,11.60
2022-12-01T10:03:35.078Z,12.30
2022-12-01T10:06:26.770Z,10.60
2022-12-01T10:09:28.678Z,12.70
2022-12-01T10:12:07.063Z,11.50
2022-12-01T10:14:37.562Z,12.70
2022-12-01T10:17:27.669Z,12.80
2022-12-01T10:20:24.001Z,12.00
2022-12-01T10:23:19.125Z,11.60
2022-12-01T10:26:00.230Z,12.00
2022-12-01T10:29:04.712Z,11.40
2022-12-01T10:32:01.529Z,12.30
2022-12-01T10:34:40.638Z,12.50
2022-12-01T10:37:23.808Z,11.90
2022-12-01T10:39:55.431Z,12.10
2022-12-01T10:42:47.821Z,11.50
2022-12-01T10:45:22.313Z,12.00
2022-12-01T10:48:09.566Z,12.50
2022-12-01T10:50:38.678Z,12.90
2022-12-01T10:53:07.242Z,12.90
2022-12-01T10:55:43.454Z,12.10
2022-12-01T10:58:17.882Z,12.00
2022-12-01T11:01:00.379Z,12.60
2022-12-01T11:03:34.125Z,11.70
2022-12-01T11:06:06.935Z,12.80
2022-12-01T11:08:53.262Z,11.50
2022-12-01T11:11:38.142Z,13.30
2022-12-01T11:14:19.150Z,12.10
2022-12-01T11:16:50.663Z,12.60
2022-12-01T11:19:34.969Z,14.50
2022-12-01T11:22:27.569Z,13.20
2022-12-01T11:25:00.849Z,12.50
2022-12-01T11:27:48.780Z,12.80
2022-12-01T11:30:27.422Z,12.20
2022-12-01T11:33:00.149Z,12.40
2022-12-01T11:35:35.624Z,12.90
2022-12-01T11:38:28.664Z,13.50
2022-12-01T11:40:57.405Z,12.00
2022-12-01T11:43:36.705Z,14.20
2022-12-01T11:46:08.456Z,13.80
2022-12-01T11:48:36.973Z,13.30
2022-12-01T11:51:26.930Z,14.10
2022-12-01T11:54:32.784Z,14.20
2022-12-01T11:59:50.423Z,13.10
2022-12-01T12:02:42.297Z,13.70
2022-12-01T12:06:38.518Z,13.50
2022-12-01T12:09:35.240Z,12.20
2022-12-01T12:12:33.110Z,12.70
2022-12-01T12:15:33.726Z,11.10
2022-12-01T12:18:28.231Z,11.10
2022-12-01T12:21:25.897Z,9.60
2022-12-01T12:24:08.511Z,10.30
2022-12-01T12:27:31.468Z,8.70
2022-12-01T12:30:10.121Z,10.80
2022-12-01T12:33:12.207Z,11.50
2022-12-01T12:36:17.780Z,10.10
2022-12-01T12:39:01.448Z,9.60
2022-12-01T12:41:48.973Z,9.40
2022-12-01T12:44:32.386Z,9.90
2022-12-01T12:47:19.080Z,10.40
2022-12-01T12:49:59.672Z,10.10
2022-12-01T12:52:40.805Z,10.50
2022-12-01T12:55:12.402Z,11.50
2022-12-01T12:58:07.947Z,10.30
2022-12-01T13:00:49.714Z,11.80
2022-12-01T13:03:34.082Z,11.80
2022-12-01T13:06:11.479Z,11.50
2022-12-01T13:09:05.978Z,13.10
2022-12-01T13:12:16.098Z,10.80
2022-12-01T13:15:01.215Z,11.80
2022-12-01T13:17:38.997Z,12.30
2022-12-01T13:20:22.137Z,11.50
2022-12-01T13:22:52.933Z,10.30
2022-12-01T13:25:41.380Z,12.60
2022-12-01T13:28:27.965Z,10.90
2022-12-01T13:31:03.199Z,12.20
2022-12-01T13:33:34.288Z,12.00
2022-12-01T13:39:19.821Z,12.80
2022-12-01T13:42:06.397Z,11.70
2022-12-01T13:44:41.658Z,11.60
2022-12-01T13:47:10.300Z,13.50
2022-12-01T13:49:48.280Z,10.60
2022-12-01T13:52:22.733Z,11.70
2022-12-01T13:55:12.599Z,11.80
2022-12-01T13:57:49.698Z,11.60
2022-12-01T14:00:30.178Z,11.80
2022-12-01T14:03:17.070Z,12.70
2022-12-01T14:05:58.338Z,11.40
2022-12-01T14:08:30.135Z,11.10
2022-12-01T14:11:24.183Z,11.60
2022-12-01T14:14:26.017Z,11.30
2022-12-01T14:17:02.877Z,12.80
2022-12-01T14:19:52.629Z,12.90
2022-12-01T14:22:40.769Z,13.20
2022-12-01T14:25:29.463Z,14.40
2022-12-01T14:28:04.728Z,12.80
2022-12-01T14:30:42.461Z,13.80
2022-12-01T14:33:59.166Z,14.20
2022-12-01T14:36:52.810Z,14.30
2022-12-01T14:39:35.444Z,14.40
2022-12-01T14:42:56.898Z,15.30
2022-12-01T14:45:41.440Z,16.40
2022-12-01T14:48:17.028Z,14.20
2022-12-01T14:50:53.425Z,15.70
2022-12-01T14:53:32.253Z,15.90
2022-12-01T14:56:11.597Z,17.70
2022-12-01T14:58:52.446Z,19.60
2022-12-01T15:01:23.362Z,20.30
2022-12-01T15:03:58.474Z,20.60
2022-12-01T15:06:31.138Z,19.30
2022-12-01T15:09:35.990Z,19.30
2022-12-01T15:12:09.853Z,20.70
2022-12-01T15:14:47.957Z,17.90
2022-12-01T15:17:31.573Z,19.40
2022-12-01T15:20:01.201Z,19.00
2022-12-01T15:22:33.868Z,19.80
2022-12-01T15:25:14.601Z,20.30
2022-12-01T15:27:43.816Z,19.00
2022-12-01T15:30:17.145Z,18.50
2022-12-01T15:32:46.157Z,19.60
2022-12-01T15:35:21.961Z,18.60
2022-12-01T15:37:52.187Z,20.10
2022-12-01T15:43:21.155Z,19.70
2022-12-01T15:46:00.871Z,20.80
2022-12-01T15:48:35.509Z,17.20
2022-12-01T15:51:25.974Z,16.90
2022-12-01T15:53:59.953Z,16.10
2022-12-01T15:56:36.441Z,18.50
2022-12-01T15:59:30.258Z,19.90
2022-12-01T16:01:59.951Z,17.20
2022-12-01T16:04:35.689Z,18.50
2022-12-01T16:07:11.116Z,18.50
2022-12-01T16:10:00.630Z,17.40
2022-12-01T16:15:00.965Z,17.90
2022-12-01T16:17:44.373Z,19.40
2022-12-01T16:20:22.409Z,17.80
2022-12-01T16:22:59.176Z,19.10
2022-12-01T16:25:42.618Z,17.00
2022-12-01T16:28:43.430Z,18.30
2022-12-01T16:31:19.929Z,17.60
2022-12-01T16:33:48.575Z,17.20
2022-12-01T16:36:17.158Z,17.10
2022-12-01T16:38:45.846Z,17.70
2022-12-01T16:41:34.800Z,18.50
2022-12-01T16:44:27.572Z,20.00
2022-12-01T16:46:55.011Z,17.80
2022-12-01T16:49:23.627Z,16.20
2022-12-01T16:51:56.856Z,17.80
2022-12-01T16:54:26.113Z,16.50
2022-12-01T16:56:54.669Z,19.20
2022-12-01T16:59:23.360Z,18.40
2022-12-01T17:01:52.026Z,17.90
2022-12-01T17:04:20.623Z,18.10
2022-12-01T17:06:49.315Z,18.80
2022-12-01T17:09:18.098Z,17.10
2022-12-01T17:11:47.093Z,16.70
2022-12-01T17:14:15.877Z,16.10
2022-12-01T17:16:44.567Z,17.10
2022-12-01T17:19:13.430Z,15.60
2022-12-01T17:21:42.248Z,16.50
2022-12-01T17:24:10.730Z,15.40
2022-12-01T17:26:39.305Z,16.70
2022-12-01T17:29:07.888Z,17.10
2022-12-01T17:31:36.748Z,15.30
2022-12-01T17:34:05.366Z,16.30
2022-12-01T17:36:33.893Z,16.00
2022-12-01T17:39:02.529Z,16.10
2022-12-01T17:41:35.920Z,15.20
2022-12-01T17:44:05.746Z,17.40
2022-12-01T17:49:08.945Z,15.60
2022-12-01T17:51:38.755Z,15.30
2022-12-01T17:54:08.163Z,17.70
2022-12-01T17:56:36.843Z,17.20
2022-12-01T17:59:05.528Z,17.30
2022-12-01T18:01:34.365Z,17.10
2022-12-01T18:04:02.910Z,17.50
2022-12-01T18:06:31.589Z,18.40
2022-12-01T18:09:01.402Z,17.10
2022-12-01T18:11:30.082Z,16.70
2022-12-01T18:14:00.515Z,16.60
2022-12-01T18:16:32.336Z,16.40
2022-12-01T18:19:01.984Z,18.10
2022-12-01T18:21:31.106Z,17.10
2022-12-01T18:24:03.447Z,15.80
2022-12-01T18:26:36.232Z,16.10
2022-12-01T18:29:12.596Z,17.50
2022-12-01T18:31:41.318Z,16.70
2022-12-01T18:34:11.514Z,15.90
2022-12-01T18:36:41.874Z,14.60
2022-12-01T18:39:12.016Z,15.40
2022-12-01T18:41:40.944Z,15.70
2022-12-01T18:44:10.138Z,16.10
2022-12-01T18:46:39.112Z,17.80
2022-12-01T18:49:09.353Z,16.00
2022-12-01T18:51:39.080Z,15.90
2022-12-01T18:59:08.902Z,16.20
2022-12-01T19:01:44.137Z,15.70
2022-12-01T19:04:15.180Z,16.30
2022-12-01T19:06:45.938Z,16.10
2022-12-01T19:09:16.324Z,15.30
2022-12-01T19:11:45.332Z,15.90
2022-12-01T19:14:17.570Z,16.00
2022-12-01T19:16:46.587Z,15.50
2022-12-01T19:19:15.307Z,14.90
2022-12-01T19:21:45.501Z,15.50
2022-12-01T19:24:14.221Z,16.70
2022-12-01T19:26:43.117Z,15.70
2022-12-01T19:29:12.277Z,14.30
2022-12-01T19:31:41.196Z,14.40
2022-12-01T19:34:09.850Z,14.90
2022-12-01T19:36:38.365Z,16.30
2022-12-01T19:39:07.847Z,15.70
2022-12-01T19:41:38.890Z,16.60
2022-12-01T19:44:07.461Z,16.30
2022-12-01T19:46:36.151Z,17.20
2022-12-01T19:49:07.125Z,15.90
2022-12-01T19:51:39.080Z,15.10
2022-12-01T19:54:13.985Z,17.10
2022-12-01T19:56:43.105Z,13.80
2022-12-01T19:59:13.755Z,14.00
2022-12-01T20:01:42.814Z,13.80
2022-12-01T20:04:11.729Z,13.10
2022-12-01T20:06:40.229Z,13.30
2022-12-01T20:09:09.983Z,12.40
2022-12-01T20:11:38.772Z,14.70
2022-12-01T20:14:11.173Z,14.00
2022-12-01T20:16:39.879Z,13.10
2022-12-01T20:19:08.527Z,13.90
2022-12-01T20:21:43.445Z,12.70
2022-12-01T20:24:15.773Z,12.50
2022-12-01T20:26:54.167Z,13.00
2022-12-01T20:29:26.750Z,14.40
2022-12-01T20:31:58.042Z,13.90
2022-12-01T20:34:30.960Z,14.80
2022-12-01T20:36:59.729Z,13.70
2022-12-01T20:39:31.604Z,14.60
2022-12-01T20:42:00.594Z,12.80
2022-12-01T20:44:29.635Z,13.10
2022-12-01T20:46:58.186Z,12.80
2022-12-01T20:49:26.839Z,12.40
2022-12-01T20:51:55.424Z,12.40
2022-12-01T20:54:28.668Z,13.50
2022-12-01T20:56:59.173Z,13.50
2022-12-01T20:59:28.987Z,13.60
2022-12-01T21:04:26.327Z,12.70
2022-12-01T21:06:57.411Z,13.40
2022-12-01T21:09:27.385Z,13.10
2022-12-01T21:12:17.659Z,13.60
2022-12-01T21:15:01.629Z,13.50
2022-12-01T21:17:46.996Z,12.50
2022-12-01T21:20:27.433Z,12.80
2022-12-01T21:23:02.953Z,12.70
2022-12-01T21:25:31.626Z,14.00
2022-12-01T21:28:12.253Z,13.80
2022-12-01T21:30:40.805Z,14.30
2022-12-01T21:33:43.350Z,12.80
2022-12-01T21:36:22.896Z,13.80
2022-12-01T21:38:57.102Z,13.30
2022-12-01T21:41:28.936Z,13.50
2022-12-01T21:44:07.902Z,12.80
2022-12-01T21:46:36.396Z,13.70
2022-12-01T21:49:20.098Z,13.50
2022-12-01T21:51:52.445Z,14.10
2022-12-01T21:54:22.946Z,15.10
2022-12-01T21:56:57.876Z,13.10
2022-12-01T21:59:26.389Z,15.20
2022-12-01T22:01:57.439Z,13.80
2022-12-01T22:04:30.926Z,13.50
2022-12-01T22:06:59.543Z,13.90
2022-12-01T22:09:34.683Z,14.90
2022-12-01T22:12:26.580Z,14.70
2022-12-01T22:15:01.907Z,13.10
2022-12-01T22:17:30.430Z,13.20
2022-12-01T22:20:02.739Z,13.90
2022-12-01T22:22:32.991Z,13.90
2022-12-01T22:25:28.745Z,12.90
2022-12-01T22:28:00.208Z,13.40
2022-12-01T22:30:28.910Z,13.50
2022-12-01T22:33:00.812Z,12.40
2022-12-01T22:35:32.882Z,14.90
2022-12-01T22:38:35.180Z,14.90
2022-12-01T22:41:14.519Z,13.50
2022-12-01T22:43:57.266Z,13.20
2022-12-01T22:46:40.180Z,14.50
2022-12-01T22:49:22.831Z,12.90
2022-12-01T22:52:29.658Z,13.00
2022-12-01T22:54:58.295Z,14.00
2022-12-01T22:57:33.455Z,13.30
2022-12-01T23:00:19.226Z,13.90
2022-12-01T23:02:55.863Z,14.50
2022-12-01T23:05:31.038Z,13.90
2022-12-01T23:07:59.848Z,13.00
2022-12-01T23:10:35.200Z,13.10
2022-12-01T23:13:16.789Z,14.00
2022-12-01T23:15:51.153Z,13.30
2022-12-01T23:18:32.444Z,12.90
2022-12-01T23:21:02.405Z,13.90
2022-12-01T23:23:37.732Z,14.60
2022-12-01T23:26:08.847Z,13.70
2022-12-01T23:28:39.442Z,15.20
2022-12-01T23:31:09.419Z,14.00
2022-12-01T23:33:38.075Z,13.30
2022-12-01T23:36:19.293Z,14.90
2022-12-01T23:38:52.142Z,14.60
2022-12-01T23:41:37.722Z,14.90
2022-12-01T23:44:36.849Z,14.40
2022-12-01T23:47:15.333Z,14.20
2022-12-01T23:49:45.298Z,13.70
2022-12-01T23:52:20.796Z,13.30
2022-12-01T23:54:49.658Z,13.40
2022-12-01T23:57:24.551Z,15.00
2022-12-01T23:59:59.169Z,15.10
